Time;durP1;ratioP1;P1;durP2;ratioP2;P2;SDS_P1;SDS_P2;PMS_P1;PMS_P2;Temp;Humidity;BMP_temperature;BMP_pressure;BME280_temperature;BME280_humidity;BME280_pressure;Samples;Min_cycle;Max_cycle;Signal;HPM_P1;HPM_P2
2023/03/14 00:02:37;;;;;;;9.00;6.93;;;15.30;83.00;;;;;;10986172;32;20019;-73
2023/03/14 00:08:40;;;;;;;9.48;7.57;;;15.30;82.90;;;;;;10984758;32;20023;-73
2023/03/14 00:14:43;;;;;;;10.77;7.85;;;15.30;82.60;;;;;;10984265;32;20026;-72
2023/03/14 00:20:45;;;;;;;9.80;6.95;;;15.30;82.60;;;;;;10984476;32;20355;-73
2023/03/14 00:26:47;;;;;;;10.15;8.00;;;15.30;82.80;;;;;;10983263;32;20018;-73
2023/03/14 00:32:49;;;;;;;9.40;6.30;;;15.30;82.90;;;;;;10955010;27;20027;-73
2023/03/14 00:38:52;;;;;;;11.10;7.22;;;15.10;83.00;;;;;;10946854;32;20380;-73
2023/03/14 00:44:54;;;;;;;9.35;7.43;;;15.20;83.10;;;;;;10945874;32;20019;-73
2023/03/14 00:50:56;;;;;;;13.93;8.70;;;15.20;83.20;;;;;;10946235;32;20058;-73
2023/03/14 00:56:58;;;;;;;11.52;8.73;;;15.00;83.20;;;;;;10947164;32;20053;-73
2023/03/14 01:03:01;;;;;;;11.18;7.75;;;15.10;83.80;;;;;;10932814;32;20026;-73
2023/03/14 01:09:03;;;;;;;10.63;7.70;;;15.00;83.70;;;;;;10946181;32;20037;-73
2023/03/14 01:15:05;;;;;;;7.62;5.20;;;15.10;83.90;;;;;;10945400;32;20498;-73
2023/03/14 01:21:18;;;;;;;8.23;6.82;;;15.10;83.50;;;;;;10944535;32;20041;-72
2023/03/14 01:27:20;;;;;;;16.52;8.75;;;15.00;83.40;;;;;;10944358;32;20061;-72
2023/03/14 01:33:22;;;;;;;9.93;7.28;;;14.80;83.10;;;;;;10944025;32;20019;-72
2023/03/14 01:39:24;;;;;;;13.32;6.57;;;14.70;83.80;;;;;;10943780;32;20019;-73
2023/03/14 01:45:54;;;;;;;12.32;8.50;;;14.70;83.80;;;;;;10943676;32;20015;-72
2023/03/14 01:52:10;;;;;;;11.18;5.30;;;14.70;83.60;;;;;;10944647;32;20026;-73
2023/03/14 01:58:13;;;;;;;13.15;7.70;;;14.60;83.90;;;;;;10944480;32;20015;-73
2023/03/14 02:04:17;;;;;;;13.10;6.40;;;14.60;84.10;;;;;;10917659;32;20360;-73
2023/03/14 02:10:30;;;;;;;9.65;7.53;;;14.70;84.00;;;;;;10943937;32;20003;-73
2023/03/14 02:16:32;;;;;;;8.52;6.30;;;14.70;83.30;;;;;;10930476;32;20018;-73
2023/03/14 02:22:35;;;;;;;10.18;5.87;;;14.60;83.80;;;;;;10942592;32;20034;-72
2023/03/14 02:28:38;;;;;;;6.47;4.87;;;14.70;84.10;;;;;;10942285;32;20019;-73
2023/03/14 02:34:43;;;;;;;7.03;4.70;;;14.70;84.10;;;;;;10941011;32;20026;-73
2023/03/14 02:40:45;;;;;;;8.50;5.93;;;14.70;84.10;;;;;;10942060;32;20073;-73
2023/03/14 02:46:47;;;;;;;7.43;5.47;;;14.80;84.00;;;;;;10943129;32;20046;-73
2023/03/14 02:52:49;;;;;;;7.90;5.85;;;14.90;84.00;;;;;;10941315;32;20049;-73
2023/03/14 02:58:51;;;;;;;14.05;5.90;;;14.80;84.30;;;;;;10942248;32;20057;-73
2023/03/14 03:04:54;;;;;;;10.77;6.85;;;14.80;84.20;;;;;;10937556;32;20031;-73
2023/03/14 03:10:57;;;;;;;9.82;6.05;;;14.70;84.30;;;;;;10941890;32;20447;-73
2023/03/14 03:17:00;;;;;;;7.30;4.57;;;14.70;84.10;;;;;;10942529;32;20023;-73
2023/03/14 03:23:03;;;;;;;6.18;3.95;;;14.70;84.20;;;;;;10941836;32;20400;-73
2023/03/14 03:29:05;;;;;;;6.60;3.95;;;14.70;84.30;;;;;;10927518;32;20058;-73
2023/03/14 03:35:08;;;;;;;8.13;6.32;;;14.60;84.30;;;;;;10941607;32;20302;-73
2023/03/14 03:41:11;;;;;;;6.30;4.50;;;14.50;84.10;;;;;;10941493;32;20045;-73
2023/03/14 03:47:16;;;;;;;6.85;4.43;;;14.40;84.50;;;;;;10940660;32;20019;-73
2023/03/14 03:53:19;;;;;;;8.02;5.40;;;14.50;84.40;;;;;;10941736;32;20057;-72
2023/03/14 03:59:21;;;;;;;8.18;5.85;;;14.50;84.40;;;;;;10926454;32;20058;-73
2023/03/14 04:05:24;;;;;;;13.10;7.93;;;14.50;84.60;;;;;;10946286;32;20023;-73
2023/03/14 04:11:26;;;;;;;9.65;5.30;;;14.50;84.40;;;;;;10920659;32;20057;-73
2023/03/14 04:17:29;;;;;;;5.10;3.40;;;14.40;84.50;;;;;;10946782;32;20058;-73
2023/03/14 04:23:31;;;;;;;5.72;4.22;;;14.50;84.80;;;;;;10946713;32;20003;-73
2023/03/14 04:29:33;;;;;;;9.95;5.68;;;14.60;84.80;;;;;;10946881;32;20046;-73
2023/03/14 04:35:36;;;;;;;5.47;3.85;;;14.80;85.00;;;;;;10946221;32;20436;-73
2023/03/14 04:41:39;;;;;;;6.85;4.57;;;15.00;85.00;;;;;;10932011;32;20049;-72
2023/03/14 04:47:42;;;;;;;5.87;4.15;;;15.00;84.50;;;;;;10946370;32;20012;-72
2023/03/14 04:53:47;;;;;;;12.93;5.15;;;15.00;84.60;;;;;;10945480;32;20054;-73
2023/03/14 04:59:49;;;;;;;7.90;5.35;;;14.90;84.60;;;;;;10945367;32;20349;-72
2023/03/14 05:05:58;;;;;;;10.00;5.62;;;15.00;84.60;;;;;;10945105;32;20076;-71
2023/03/14 05:12:08;;;;;;;13.00;7.65;;;14.80;84.60;;;;;;10918174;32;20031;-71
2023/03/14 05:18:10;;;;;;;14.63;11.52;;;14.60;84.40;;;;;;10944819;32;20015;-71
2023/03/14 05:24:13;;;;;;;7.35;5.53;;;14.40;83.40;;;;;;10931065;32;20019;-72
2023/03/14 05:30:17;;;;;;;11.68;7.55;;;14.10;84.40;;;;;;10944271;32;20038;-71
2023/03/14 05:36:20;;;;;;;7.93;5.55;;;14.10;84.30;;;;;;10943973;32;20041;-71
2023/03/14 05:42:23;;;;;;;6.12;4.65;;;13.80;84.20;;;;;;10945588;32;20049;-71
2023/03/14 05:48:26;;;;;;;9.82;6.15;;;14.00;84.10;;;;;;10944189;32;20046;-71
2023/03/14 05:54:28;;;;;;;9.52;5.65;;;14.10;84.40;;;;;;10943273;32;20049;-71
2023/03/14 06:00:30;;;;;;;7.43;5.22;;;13.90;84.30;;;;;;10944442;32;20027;-71
2023/03/14 06:06:33;;;;;;;16.58;7.75;;;14.10;84.90;;;;;;10942853;32;20447;-71
2023/03/14 06:12:35;;;;;;;9.45;7.37;;;14.20;83.90;;;;;;10942728;32;20019;-72
2023/03/14 06:18:37;;;;;;;6.57;5.53;;;14.20;84.50;;;;;;10943193;32;20022;-71
2023/03/14 06:24:41;;;;;;;7.00;5.72;;;14.00;84.40;;;;;;10929016;32;20427;-71
2023/03/14 06:30:44;;;;;;;7.97;6.62;;;14.00;84.60;;;;;;10941917;32;20042;-71
2023/03/14 06:36:50;;;;;;;10.50;5.12;;;14.20;84.90;;;;;;10927862;32;20026;-71
2023/03/14 06:42:52;;;;;;;8.70;5.40;;;14.20;84.70;;;;;;10928059;32;20108;-70
2023/03/14 06:48:55;;;;;;;7.12;4.78;;;14.30;84.90;;;;;;10937621;32;20046;-70
2023/03/14 06:54:58;;;;;;;10.60;5.43;;;14.60;84.70;;;;;;10942203;32;20023;-70
2023/03/14 07:01:01;;;;;;;8.75;5.75;;;14.80;85.00;;;;;;10941835;32;20011;-70
2023/03/14 07:07:05;;;;;;;7.15;4.57;;;14.80;84.90;;;;;;10941010;32;20045;-70
2023/03/14 07:13:08;;;;;;;9.93;5.68;;;14.80;86.30;;;;;;10939019;32;20118;-71
2023/03/14 07:19:11;;;;;;;9.95;5.82;;;14.80;86.30;;;;;;10938281;32;20062;-71
2023/03/14 07:25:14;;;;;;;6.40;4.80;;;14.70;87.10;;;;;;10922649;32;20023;-72
2023/03/14 07:31:16;;;;;;;10.50;6.93;;;14.80;87.70;;;;;;10926661;32;20069;-71
2023/03/14 07:37:19;;;;;;;10.90;5.72;;;14.80;87.50;;;;;;10944448;32;20016;-72
2023/03/14 07:43:21;;;;;;;9.57;5.70;;;14.50;87.50;;;;;;10945790;32;20042;-73
2023/03/14 07:49:23;;;;;;;9.65;5.87;;;14.80;87.80;;;;;;10948919;32;20049;-72
2023/03/14 07:55:25;;;;;;;10.45;6.80;;;14.70;86.30;;;;;;10934590;32;20026;-73
2023/03/14 08:01:27;;;;;;;7.62;5.78;;;14.50;87.30;;;;;;10948311;32;20431;-73
2023/03/14 08:07:29;;;;;;;7.32;4.35;;;14.60;87.40;;;;;;10933341;32;20054;-73
2023/03/14 08:13:32;;;;;;;11.27;6.68;;;14.70;87.20;;;;;;10947169;32;20037;-73
2023/03/14 08:19:34;;;;;;;7.00;5.45;;;14.80;87.20;;;;;;10920501;32;20027;-73
2023/03/14 08:25:38;;;;;;;6.78;5.30;;;14.80;86.90;;;;;;10946543;32;20069;-73
2023/03/14 08:31:40;;;;;;;8.48;5.37;;;14.80;86.90;;;;;;10949554;27;20408;-73
2023/03/14 08:37:42;;;;;;;7.07;4.28;;;14.80;86.70;;;;;;10945807;32;20015;-73
2023/03/14 08:43:44;;;;;;;4.93;3.47;;;14.80;86.90;;;;;;10947092;32;20328;-73
2023/03/14 08:49:47;;;;;;;8.13;5.70;;;14.80;86.70;;;;;;10943562;32;20066;-73
2023/03/14 08:55:55;;;;;;;7.80;5.35;;;14.70;86.70;;;;;;10944292;32;20360;-73
2023/03/14 09:01:57;;;;;;;10.90;7.97;;;14.80;86.80;;;;;;10945283;32;20049;-73
2023/03/14 09:07:59;;;;;;;10.43;8.45;;;14.70;86.50;;;;;;10942820;32;20392;-73
2023/03/14 09:14:01;;;;;;;6.82;4.97;;;14.60;87.10;;;;;;10945592;32;20325;-72
2023/03/14 09:20:07;;;;;;;7.35;5.62;;;14.60;87.80;;;;;;10943829;32;20023;-73
2023/03/14 09:26:09;;;;;;;9.32;6.47;;;14.80;87.80;;;;;;10943054;32;20405;-73
2023/03/14 09:32:11;;;;;;;10.77;5.65;;;14.80;87.50;;;;;;10944214;32;20432;-72
2023/03/14 09:38:13;;;;;;;14.20;6.12;;;14.70;88.00;;;;;;10942641;32;20049;-73
2023/03/14 09:44:15;;;;;;;11.32;7.10;;;14.70;87.60;;;;;;10943796;32;20018;-73
2023/03/14 09:50:18;;;;;;;13.98;8.43;;;14.70;87.70;;;;;;10942847;32;20413;-73
2023/03/14 09:56:24;;;;;;;7.37;5.40;;;14.60;88.00;;;;;;10943277;32;20050;-73
2023/03/14 10:02:34;;;;;;;9.85;5.07;;;14.70;88.00;;;;;;10942861;32;20072;-73
2023/03/14 10:08:43;;;;;;;9.23;5.75;;;14.70;87.70;;;;;;10944166;32;20050;-73
2023/03/14 10:14:52;;;;;;;7.17;3.77;;;14.70;87.60;;;;;;10943994;32;20046;-72
2023/03/14 10:21:14;;;;;;;;;;;14.60;87.50;;;;;;10942822;32;20037;-72
2023/03/14 10:27:21;;;;;;;8.35;4.93;;;14.60;88.10;;;;;;10901619;32;20244;-72
2023/03/14 10:33:25;;;;;;;8.73;5.75;;;14.70;88.10;;;;;;10887977;32;20031;-73
2023/03/14 10:39:32;;;;;;;9.88;6.22;;;14.70;88.20;;;;;;10888908;32;20050;-73
2023/03/14 10:45:43;;;;;;;11.48;6.85;;;14.70;88.40;;;;;;10898730;32;20028;-73
2023/03/14 10:51:46;;;;;;;12.95;6.55;;;14.50;88.30;;;;;;10900968;32;20069;-73
2023/03/14 10:57:48;;;;;;;13.55;3.62;;;14.50;88.80;;;;;;10900184;32;20066;-73
2023/03/14 11:04:31;;;;;;;10.70;6.72;;;14.50;88.90;;;;;;10930467;32;20045;-73
2023/03/14 11:10:46;;;;;;;13.65;5.93;;;14.50;88.30;;;;;;10901907;32;20343;-73
2023/03/14 11:16:51;;;;;;;14.10;6.05;;;14.50;88.90;;;;;;10907706;32;20026;-73
2023/03/14 11:22:53;;;;;;;7.12;3.87;;;14.50;88.50;;;;;;10907886;32;20158;-73
2023/03/14 11:29:16;;;;;;;5.32;3.67;;;14.40;88.90;;;;;;10906423;32;20027;-74
2023/03/14 11:35:41;;;;;;;8.32;4.40;;;14.70;88.80;;;;;;10903924;32;20054;-75
2023/03/14 11:41:50;;;;;;;8.10;5.25;;;14.70;88.50;;;;;;10943174;32;20053;-74
2023/03/14 11:48:29;;;;;;;10.63;3.40;;;14.60;88.60;;;;;;10949096;32;20019;-74
2023/03/14 11:54:53;;;;;;;4.57;2.60;;;14.70;88.80;;;;;;10906681;32;20031;-74
2023/03/14 12:00:57;;;;;;;6.03;3.67;;;14.90;88.60;;;;;;10894388;32;20365;-74
2023/03/14 12:07:08;;;;;;;7.72;5.30;;;15.00;88.40;;;;;;10905840;32;20435;-74
2023/03/14 12:13:13;;;;;;;10.05;3.62;;;15.00;88.10;;;;;;10905754;32;20023;-75
2023/03/14 12:19:21;;;;;;;3.70;2.87;;;14.90;88.20;;;;;;10906299;32;20027;-74
2023/03/14 12:25:30;;;;;;;8.10;3.20;;;15.00;88.00;;;;;;10904747;32;20028;-74
2023/03/14 12:31:44;;;;;;;6.12;3.40;;;14.80;87.70;;;;;;10939943;32;20448;-74
2023/03/14 12:37:52;;;;;;;9.65;3.92;;;14.80;87.80;;;;;;10946609;32;20329;-74
2023/03/14 12:43:55;;;;;;;5.68;3.58;;;14.80;88.00;;;;;;10947266;32;20015;-73
2023/03/14 12:50:13;;;;;;;5.95;2.62;;;14.90;88.00;;;;;;10945651;32;20051;-73
2023/03/14 12:56:40;;;;;;;4.43;2.25;;;15.10;87.90;;;;;;10946050;32;20018;-73
2023/03/14 13:02:44;;;;;;;9.68;3.92;;;15.30;87.70;;;;;;10946070;32;20058;-73
2023/03/14 13:08:47;;;;;;;5.75;2.62;;;15.40;87.80;;;;;;10944970;32;20313;-73
2023/03/14 13:14:53;;;;;;;10.73;4.95;;;15.30;88.10;;;;;;10944665;32;20015;-74
2023/03/14 13:21:03;;;;;;;5.80;4.12;;;15.40;88.30;;;;;;10908571;32;20031;-74
2023/03/14 13:27:23;;;;;;;9.15;4.82;;;15.30;88.00;;;;;;10906743;32;20050;-74
2023/03/14 13:33:26;;;;;;;8.40;3.50;;;15.20;87.80;;;;;;10904844;32;20027;-74
2023/03/14 13:39:29;;;;;;;6.93;3.33;;;15.00;87.90;;;;;;10907054;32;20341;-74
2023/03/14 13:45:31;;;;;;;13.55;4.18;;;15.20;88.50;;;;;;10907462;32;20404;-74
2023/03/14 13:51:33;;;;;;;14.48;3.85;;;15.50;88.60;;;;;;10905802;32;20024;-75
2023/03/14 13:57:54;;;;;;;7.00;3.80;;;15.70;89.00;;;;;;10906938;32;20299;-75
2023/03/14 14:03:58;;;;;;;9.50;3.87;;;15.70;89.10;;;;;;10901689;32;20054;-75
2023/03/14 14:10:01;;;;;;;11.48;4.10;;;15.90;89.40;;;;;;10906184;32;20404;-75
2023/03/14 14:16:04;;;;;;;5.75;3.30;;;15.90;89.60;;;;;;10905057;32;20027;-74
2023/03/14 14:22:09;;;;;;;5.47;3.67;;;16.00;89.70;;;;;;10903917;32;20041;-74
2023/03/14 14:28:17;;;;;;;8.30;3.72;;;16.20;89.40;;;;;;10903817;32;20034;-75
2023/03/14 14:34:20;;;;;;;2.70;2.05;;;16.20;89.20;;;;;;10905126;32;20562;-75
2023/03/14 14:40:25;;;;;;;4.62;3.15;;;16.20;89.50;;;;;;10905048;32;20345;-75
2023/03/14 14:46:31;;;;;;;4.60;3.05;;;16.20;89.50;;;;;;10927166;32;20070;-75
2023/03/14 14:52:46;;;;;;;5.78;3.17;;;16.20;89.30;;;;;;10941863;32;20401;-75
2023/03/14 14:58:49;;;;;;;6.37;3.55;;;16.20;89.50;;;;;;10925873;32;20093;-75
2023/03/14 15:04:51;;;;;;;8.02;4.37;;;16.30;89.10;;;;;;10921060;32;20348;-76
2023/03/14 15:10:54;;;;;;;10.60;5.22;;;16.20;88.70;;;;;;10937468;32;20046;-75
2023/03/14 15:16:56;;;;;;;12.50;5.28;;;16.20;88.90;;;;;;10939007;32;20035;-75
2023/03/14 15:22:58;;;;;;;10.30;5.03;;;16.30;89.00;;;;;;10915159;32;20349;-75
2023/03/14 15:29:01;;;;;;;6.70;4.45;;;16.30;88.90;;;;;;10903400;32;20057;-75
2023/03/14 15:35:03;;;;;;;6.50;3.15;;;16.70;89.20;;;;;;10904055;32;20388;-75
2023/03/14 15:41:05;;;;;;;6.72;3.20;;;17.70;88.00;;;;;;10904006;32;20340;-75
2023/03/14 15:47:10;;;;;;;5.57;2.87;;;18.90;86.40;;;;;;10903807;32;20043;-75
2023/03/14 15:53:13;;;;;;;7.78;3.17;;;18.70;87.70;;;;;;10903069;32;20027;-75
2023/03/14 15:59:15;;;;;;;7.00;3.28;;;18.70;87.80;;;;;;10908194;32;20042;-75
2023/03/14 16:05:20;;;;;;;7.80;3.35;;;19.00;88.10;;;;;;10939886;32;20096;-75
2023/03/14 16:11:22;;;;;;;3.78;2.30;;;19.00;87.70;;;;;;10948307;32;20389;-75
2023/03/14 16:17:25;;;;;;;8.85;2.95;;;18.80;88.30;;;;;;10942513;32;20031;-76
2023/03/14 16:23:29;;;;;;;4.40;2.87;;;18.60;89.00;;;;;;10933096;32;20110;-75
2023/03/14 16:29:31;;;;;;;6.45;3.08;;;18.30;89.40;;;;;;10910125;27;20448;-75
2023/03/14 16:35:33;;;;;;;8.50;4.53;;;17.80;90.20;;;;;;10842284;32;20048;-75
2023/03/14 16:41:35;;;;;;;6.20;3.50;;;17.50;90.90;;;;;;10790997;33;20398;-75
2023/03/14 16:47:38;;;;;;;6.97;4.05;;;17.20;91.20;;;;;;10791257;33;20300;-75
2023/03/14 16:53:40;;;;;;;6.12;3.83;;;17.00;91.50;;;;;;10773198;33;20342;-75
2023/03/14 16:59:42;;;;;;;4.30;3.10;;;16.90;91.60;;;;;;10791485;33;20429;-75
2023/03/14 17:05:46;;;;;;;8.02;3.85;;;16.70;91.90;;;;;;10791803;33;20020;-75
2023/03/14 17:11:48;;;;;;;5.50;3.30;;;16.70;91.90;;;;;;10791047;33;20008;-75
2023/03/14 17:17:51;;;;;;;7.60;4.22;;;16.50;91.90;;;;;;10790436;33;20020;-75
2023/03/14 17:23:53;;;;;;;9.90;4.90;;;16.50;91.90;;;;;;10773158;33;20406;-76
2023/03/14 17:29:55;;;;;;;6.47;3.62;;;16.40;91.90;;;;;;10775250;33;20047;-76
2023/03/14 17:35:57;;;;;;;7.87;4.03;;;16.30;91.70;;;;;;10789740;33;20046;-76
2023/03/14 17:42:00;;;;;;;6.28;4.05;;;16.30;91.60;;;;;;10760876;33;20029;-76
2023/03/14 17:48:03;;;;;;;5.82;3.85;;;16.20;91.30;;;;;;10790037;33;20029;-76
2023/03/14 17:54:05;;;;;;;5.87;3.83;;;16.20;91.00;;;;;;10789262;33;20042;-76
2023/03/14 18:00:10;;;;;;;6.60;2.78;;;16.10;91.10;;;;;;10789123;33;20198;-76
2023/03/14 18:06:12;;;;;;;10.98;4.80;;;16.10;91.00;;;;;;10789515;33;20021;-75
2023/03/14 18:12:15;;;;;;;5.80;3.37;;;16.10;90.80;;;;;;10785612;33;20370;-76
2023/03/14 18:18:17;;;;;;;8.40;4.37;;;15.90;90.50;;;;;;10783951;33;20055;-76
2023/03/14 18:24:20;;;;;;;9.02;5.25;;;15.90;90.40;;;;;;10788261;33;20017;-76
2023/03/14 18:30:23;;;;;;;15.50;6.37;;;16.00;90.10;;;;;;10788684;33;20024;-76
2023/03/14 18:36:25;;;;;;;8.73;5.28;;;16.00;89.90;;;;;;10789206;33;20013;-76
2023/03/14 18:42:28;;;;;;;8.63;5.60;;;16.00;89.80;;;;;;10787885;33;20047;-75
2023/03/14 18:48:30;;;;;;;7.12;5.22;;;15.90;89.60;;;;;;10785784;33;20379;-75
2023/03/14 18:54:32;;;;;;;11.27;6.55;;;15.90;89.40;;;;;;10787658;33;20016;-75
2023/03/14 19:00:37;;;;;;;11.27;6.87;;;15.80;89.50;;;;;;10788210;33;20379;-75
2023/03/14 19:06:40;;;;;;;12.18;7.10;;;15.80;89.50;;;;;;10770888;33;20337;-76
2023/03/14 19:12:42;;;;;;;9.30;6.97;;;15.80;89.40;;;;;;10787011;33;20055;-76
2023/03/14 19:18:44;;;;;;;14.57;6.18;;;15.80;89.20;;;;;;10786968;33;20020;-75
2023/03/14 19:24:46;;;;;;;9.27;5.35;;;15.70;89.00;;;;;;10785934;33;20025;-75
2023/03/14 19:30:49;;;;;;;11.80;6.68;;;15.70;88.90;;;;;;10787620;33;20344;-76
2023/03/14 19:36:52;;;;;;;7.90;5.95;;;15.60;88.90;;;;;;10793713;33;20016;-76
2023/03/14 19:42:54;;;;;;;8.60;6.05;;;15.60;88.90;;;;;;10792909;33;20016;-76
2023/03/14 19:48:56;;;;;;;10.60;6.50;;;15.60;88.60;;;;;;10793607;33;20013;-76
2023/03/14 19:55:00;;;;;;;14.32;5.55;;;15.50;88.60;;;;;;10793939;33;20078;-76
2023/03/14 20:01:06;;;;;;;11.52;6.70;;;15.40;88.60;;;;;;10792136;33;20043;-76
2023/03/14 20:07:11;;;;;;;8.45;5.07;;;15.30;88.70;;;;;;10792582;33;20079;-76
2023/03/14 20:13:14;;;;;;;11.07;5.53;;;15.20;88.50;;;;;;10792977;33;20375;-76
2023/03/14 20:19:16;;;;;;;10.45;5.65;;;15.10;88.70;;;;;;10792320;33;20015;-76
2023/03/14 20:25:19;;;;;;;8.88;5.65;;;15.20;88.90;;;;;;10787755;33;20048;-76
2023/03/14 20:31:21;;;;;;;6.50;4.87;;;15.20;88.70;;;;;;10779205;33;20025;-76
2023/03/14 20:37:23;;;;;;;5.40;3.75;;;15.10;88.50;;;;;;10791204;33;20047;-76
2023/03/14 20:43:28;;;;;;;7.25;5.20;;;15.00;88.70;;;;;;10836977;32;20032;-76
2023/03/14 20:49:30;;;;;;;10.18;5.57;;;15.10;88.80;;;;;;10789890;32;20059;-76
2023/03/14 20:55:32;;;;;;;7.53;4.70;;;15.00;88.60;;;;;;10790368;33;20055;-76
2023/03/14 21:01:34;;;;;;;9.60;5.95;;;15.00;88.50;;;;;;10787758;33;20276;-76
2023/03/14 21:07:40;;;;;;;13.43;7.05;;;15.00;88.30;;;;;;10778522;33;20024;-76
2023/03/14 21:13:42;;;;;;;5.80;4.55;;;15.00;88.10;;;;;;10778634;33;20024;-76
2023/03/14 21:19:44;;;;;;;10.38;4.72;;;14.90;88.20;;;;;;10792287;33;20055;-76
2023/03/14 21:25:49;;;;;;;5.45;3.30;;;14.80;88.30;;;;;;10790331;33;20028;-76
2023/03/14 21:31:51;;;;;;;4.55;3.08;;;14.80;88.30;;;;;;10789982;33;20050;-76
2023/03/14 21:37:53;;;;;;;9.02;4.78;;;14.80;88.10;;;;;;10776008;33;20307;-76
2023/03/14 21:43:56;;;;;;;5.00;3.00;;;14.80;88.00;;;;;;10789614;33;20024;-76
2023/03/14 21:49:58;;;;;;;8.88;5.53;;;14.80;87.90;;;;;;10785363;33;20075;-76
2023/03/14 21:56:00;;;;;;;6.85;3.80;;;14.80;87.80;;;;;;10789277;33;20414;-76
2023/03/14 22:02:11;;;;;;;8.73;4.10;;;14.70;87.80;;;;;;10789781;33;20024;-76
2023/03/14 22:08:15;;;;;;;6.18;2.47;;;14.70;87.70;;;;;;10790167;33;20024;-76
2023/03/14 22:14:17;;;;;;;5.45;3.65;;;14.70;87.70;;;;;;10789842;33;20428;-76
2023/03/14 22:20:19;;;;;;;7.18;5.22;;;14.60;87.50;;;;;;10788615;33;20028;-77
2023/03/14 22:26:22;;;;;;;10.55;4.85;;;14.40;87.60;;;;;;10777242;33;20012;-77
2023/03/14 22:32:24;;;;;;;4.90;3.40;;;14.20;87.40;;;;;;10762675;33;20395;-77
2023/03/14 22:38:26;;;;;;;5.80;4.05;;;14.10;87.50;;;;;;10788913;33;20016;-76
2023/03/14 22:44:31;;;;;;;4.40;3.47;;;14.10;87.70;;;;;;10788791;33;20369;-75
2023/03/14 22:50:33;;;;;;;6.90;3.20;;;14.20;87.50;;;;;;10784403;33;20020;-76
2023/03/14 22:56:36;;;;;;;4.40;3.00;;;14.20;87.30;;;;;;10787839;33;20024;-76
2023/03/14 23:02:39;;;;;;;3.67;2.55;;;14.40;87.20;;;;;;10775485;33;20413;-76
2023/03/14 23:08:41;;;;;;;4.62;3.37;;;14.40;87.10;;;;;;10778235;33;20036;-76
2023/03/14 23:14:43;;;;;;;4.07;2.90;;;14.40;87.20;;;;;;10790198;33;20024;-76
2023/03/14 23:20:47;;;;;;;9.18;3.85;;;14.50;87.20;;;;;;10794010;33;20025;-76
2023/03/14 23:26:50;;;;;;;4.10;3.00;;;14.50;87.00;;;;;;10779557;33;20106;-76
2023/03/14 23:32:52;;;;;;;4.30;3.40;;;14.30;87.00;;;;;;10574309;33;7194312;-76
2023/03/14 23:38:54;;;;;;;3.87;2.50;;;14.30;86.90;;;;;;10794114;33;20020;-76
2023/03/14 23:44:56;;;;;;;3.65;2.78;;;14.30;86.80;;;;;;10793215;33;20020;-74
2023/03/14 23:51:01;;;;;;;3.60;2.80;;;14.30;86.60;;;;;;10779808;33;20063;-74
2023/03/14 23:57:04;;;;;;;3.30;2.55;;;14.20;86.50;;;;;;10792880;33;20031;-74
